createdAt,value
2022-10-02T06:15:01.442Z,8.94
2022-10-02T06:25:01.408Z,7.71
2022-10-02T06:35:01.463Z,7.64
2022-10-02T06:45:01.363Z,7.31
2022-10-02T06:55:01.383Z,10.29
2022-10-02T07:05:01.452Z,9.84
2022-10-02T07:15:01.363Z,8.19
2022-10-02T07:25:01.385Z,8.18
2022-10-02T07:35:01.603Z,9.62
2022-10-02T07:45:01.491Z,10.05
2022-10-02T07:55:01.535Z,11.30
2022-10-02T08:05:01.455Z,10.23
2022-10-02T08:15:01.475Z,11.31
2022-10-02T08:25:01.365Z,14.31
2022-10-02T08:35:01.735Z,13.46
2022-10-02T08:45:01.726Z,14.00
2022-10-02T08:55:01.915Z,15.40
2022-10-02T09:05:01.799Z,11.74
2022-10-02T09:15:01.920Z,16.22
2022-10-02T09:25:01.967Z,15.62
2022-10-02T09:35:01.751Z,12.49
2022-10-02T09:45:02.110Z,14.19
2022-10-02T09:55:01.843Z,13.47
2022-10-02T10:05:06.002Z,14.23
2022-10-02T10:15:01.805Z,14.66
2022-10-02T10:25:02.012Z,15.37
2022-10-02T10:35:01.840Z,13.11
2022-10-02T10:45:01.783Z,14.99
2022-10-02T10:55:01.906Z,11.56
2022-10-02T11:05:01.820Z,14.04
2022-10-02T11:15:01.947Z,12.27
2022-10-02T11:25:01.914Z,11.50
2022-10-02T11:35:02.163Z,13.19
2022-10-02T11:45:01.875Z,16.79
2022-10-02T11:55:02.102Z,13.04
2022-10-02T12:05:02.075Z,11.40
2022-10-02T12:15:01.994Z,11.22
2022-10-02T12:25:01.725Z,10.01
2022-10-02T12:35:01.841Z,16.90
2022-10-02T12:45:01.894Z,13.96
2022-10-02T12:55:01.984Z,10.49
2022-10-02T13:05:02.033Z,9.94
2022-10-02T13:15:01.941Z,10.05
2022-10-02T13:25:01.994Z,9.89
2022-10-02T13:35:02.238Z,8.08
2022-10-02T13:45:02.318Z,10.54
2022-10-02T13:55:02.074Z,8.63
2022-10-02T14:05:02.425Z,12.71
2022-10-02T14:15:02.376Z,9.75
2022-10-02T14:25:02.255Z,12.93
2022-10-02T14:35:02.287Z,6.92
2022-10-02T14:45:02.345Z,7.30
2022-10-02T14:55:02.293Z,17.12
2022-10-02T15:05:04.512Z,18.97
2022-10-02T15:15:02.323Z,5.45
2022-10-02T15:25:02.124Z,5.00
2022-10-02T15:35:02.365Z,4.57
2022-10-02T15:45:02.290Z,6.34
2022-10-02T15:55:02.363Z,7.55
2022-10-02T16:05:02.159Z,7.02
2022-10-02T16:15:02.360Z,5.22
2022-10-02T16:25:02.364Z,6.16
2022-10-02T16:35:02.326Z,4.87
2022-10-02T16:45:02.404Z,4.94
2022-10-02T16:55:02.324Z,4.92
2022-10-02T17:05:02.377Z,5.48
2022-10-02T17:15:02.234Z,5.47
2022-10-02T17:25:02.173Z,4.63
2022-10-02T17:35:02.292Z,6.18
2022-10-02T17:45:02.341Z,6.14
2022-10-02T17:55:02.428Z,5.90
2022-10-02T18:05:02.356Z,6.79
2022-10-02T18:15:02.223Z,6.35
2022-10-02T18:25:02.405Z,5.29
2022-10-02T18:35:02.400Z,3.99
2022-10-02T18:45:02.286Z,4.73
2022-10-02T18:55:02.428Z,5.69
2022-10-02T19:05:02.481Z,6.16
2022-10-02T19:15:02.453Z,5.24
